Time;durP1;ratioP1;P1;durP2;ratioP2;P2;SDS_P1;SDS_P2;PMS_P1;PMS_P2;Temp;Humidity;BMP_temperature;BMP_pressure;BME280_temperature;BME280_humidity;BME280_pressure;Samples;Min_cycle;Max_cycle;Signal;HPM_P1;HPM_P2
2023/08/21 00:00:04;;;;;;;8.07;7.25;;;23.70;99.90;;;;;;5057852;28;20273;-55
2023/08/21 00:02:29;;;;;;;10.40;8.80;;;23.60;99.90;;;;;;5059982;28;20533;-54
2023/08/21 00:04:55;;;;;;;11.63;8.02;;;23.60;99.90;;;;;;5059511;28;20210;-54
2023/08/21 00:07:21;;;;;;;10.73;8.03;;;23.60;99.90;;;;;;5060192;28;20797;-54
2023/08/21 00:09:46;;;;;;;8.98;7.60;;;23.60;99.90;;;;;;5055518;28;20198;-55
2023/08/21 00:12:12;;;;;;;8.63;7.07;;;23.60;99.90;;;;;;5058167;28;20199;-54
2023/08/21 00:14:37;;;;;;;8.77;7.53;;;23.60;99.90;;;;;;5058046;28;20190;-54
2023/08/21 00:17:03;;;;;;;8.32;7.53;;;23.60;99.90;;;;;;5059179;28;20273;-56
2023/08/21 00:19:29;;;;;;;10.32;8.90;;;23.60;99.90;;;;;;5041492;28;20194;-55
2023/08/21 00:21:55;;;;;;;9.38;7.68;;;23.50;99.90;;;;;;5060179;28;20205;-56
2023/08/21 00:24:20;;;;;;;8.70;7.33;;;23.50;99.90;;;;;;5058633;28;20312;-55
2023/08/21 00:26:46;;;;;;;9.32;7.82;;;23.50;99.90;;;;;;5058659;28;20584;-56
2023/08/21 00:29:11;;;;;;;8.35;7.43;;;23.50;99.90;;;;;;5060116;28;20240;-62
2023/08/21 00:31:37;;;;;;;8.30;7.07;;;23.40;99.90;;;;;;5055760;28;20211;-55
2023/08/21 00:34:02;;;;;;;11.52;7.70;;;23.30;99.90;;;;;;5058332;28;20210;-56
2023/08/21 00:36:28;;;;;;;10.20;7.13;;;23.20;99.90;;;;;;5053433;28;20206;-56
2023/08/21 00:38:53;;;;;;;7.20;6.50;;;23.20;99.90;;;;;;5060176;28;20202;-56
2023/08/21 00:41:19;;;;;;;7.93;7.13;;;23.20;99.90;;;;;;5061658;28;20738;-56
2023/08/21 00:43:44;;;;;;;7.57;6.73;;;23.20;99.90;;;;;;5056655;28;20800;-56
2023/08/21 00:46:10;;;;;;;7.35;6.07;;;23.20;99.90;;;;;;5058534;28;20199;-55
2023/08/21 00:48:36;;;;;;;9.33;6.63;;;23.20;99.90;;;;;;5064315;28;20252;-56
2023/08/21 00:51:03;;;;;;;7.25;6.47;;;23.10;99.90;;;;;;5052124;28;20206;-56
2023/08/21 00:53:29;;;;;;;7.78;6.57;;;23.00;99.90;;;;;;5047013;28;20269;-55
2023/08/21 00:55:54;;;;;;;10.10;7.50;;;23.10;99.90;;;;;;5062353;28;20662;-56
2023/08/21 00:58:20;;;;;;;7.95;6.35;;;23.10;99.90;;;;;;5058726;28;20201;-55
2023/08/21 01:00:49;;;;;;;8.07;7.27;;;23.00;99.90;;;;;;5051569;28;20229;-55
2023/08/21 01:03:14;;;;;;;11.50;7.90;;;23.00;99.90;;;;;;5053731;28;20282;-56
2023/08/21 01:05:40;;;;;;;7.63;6.83;;;23.00;99.90;;;;;;5053989;28;20301;-55
2023/08/21 01:08:14;;;;;;;8.30;7.33;;;23.00;99.90;;;;;;5059832;28;20293;-56
2023/08/21 01:10:54;;;;;;;8.23;7.07;;;22.90;99.90;;;;;;5061579;28;20214;-56
2023/08/21 01:13:42;;;;;;;8.23;7.37;;;22.90;99.90;;;;;;5062833;28;20436;-56
2023/08/21 01:16:09;;;;;;;8.70;6.75;;;22.90;99.90;;;;;;5057615;28;20187;-57
2023/08/21 01:18:36;;;;;;;8.70;7.38;;;22.80;99.90;;;;;;5063479;28;20209;-56
2023/08/21 01:21:04;;;;;;;8.53;6.93;;;22.80;99.90;;;;;;5048268;28;20253;-57
2023/08/21 01:23:37;;;;;;;8.70;7.70;;;22.80;99.90;;;;;;5039314;28;20789;-56
2023/08/21 01:26:04;;;;;;;11.17;8.13;;;22.80;99.90;;;;;;5045540;28;20198;-56
2023/08/21 01:28:31;;;;;;;8.48;7.68;;;22.80;99.90;;;;;;5051427;28;20203;-56
2023/08/21 01:31:03;;;;;;;8.20;7.00;;;22.80;99.90;;;;;;5047817;28;20210;-56
2023/08/21 01:33:33;;;;;;;8.10;7.30;;;22.80;99.90;;;;;;5054114;28;20248;-56
2023/08/21 01:36:03;;;;;;;8.70;7.67;;;22.80;99.90;;;;;;5046074;28;20650;-56
2023/08/21 01:38:31;;;;;;;7.83;7.03;;;22.80;99.90;;;;;;5060169;28;20186;-57
2023/08/21 01:40:56;;;;;;;8.63;7.45;;;22.90;99.90;;;;;;5064641;28;20190;-55
2023/08/21 01:43:22;;;;;;;11.65;7.65;;;22.90;99.90;;;;;;5061080;28;20189;-55
2023/08/21 01:45:47;;;;;;;10.83;8.03;;;22.90;99.90;;;;;;5053171;28;20279;-55
2023/08/21 01:48:13;;;;;;;9.37;8.33;;;22.80;99.90;;;;;;5060825;28;20240;-55
2023/08/21 01:50:38;;;;;;;7.68;6.88;;;22.70;99.90;;;;;;5055129;28;20221;-56
2023/08/21 01:53:04;;;;;;;7.70;7.00;;;22.70;99.90;;;;;;5051066;28;20198;-56
2023/08/21 01:55:29;;;;;;;8.53;7.63;;;22.70;99.90;;;;;;5045281;28;20195;-56
2023/08/21 01:57:55;;;;;;;7.70;7.00;;;22.70;99.90;;;;;;5049183;28;20259;-55
2023/08/21 02:00:20;;;;;;;10.00;7.93;;;22.70;99.90;;;;;;5046492;28;20230;-56
2023/08/21 02:02:46;;;;;;;9.87;8.87;;;22.70;99.90;;;;;;5061777;28;20194;-56
2023/08/21 02:05:11;;;;;;;9.35;8.32;;;22.70;99.90;;;;;;5046012;28;20219;-58
2023/08/21 02:07:36;;;;;;;9.60;8.60;;;22.70;99.90;;;;;;5053572;28;20203;-55
2023/08/21 02:10:02;;;;;;;9.20;7.95;;;22.80;99.90;;;;;;5061202;28;20230;-56
2023/08/21 02:12:27;;;;;;;7.63;6.93;;;22.70;99.90;;;;;;5059395;28;20274;-55
2023/08/21 02:14:53;;;;;;;13.38;9.02;;;22.70;99.90;;;;;;5052550;28;20592;-55
2023/08/21 02:17:18;;;;;;;10.50;8.10;;;22.70;99.90;;;;;;5058404;28;20194;-56
2023/08/21 02:19:44;;;;;;;8.73;7.93;;;22.80;99.90;;;;;;5053433;28;20190;-56
2023/08/21 02:22:09;;;;;;;11.40;7.40;;;22.70;99.90;;;;;;5055242;28;20544;-56
2023/08/21 02:24:35;;;;;;;8.77;7.67;;;22.60;99.90;;;;;;5054307;28;20182;-56
2023/08/21 02:27:00;;;;;;;8.15;7.10;;;22.70;99.90;;;;;;5058376;28;20198;-56
2023/08/21 02:29:26;;;;;;;11.83;8.10;;;22.60;99.90;;;;;;5056230;28;20736;-55
2023/08/21 02:31:51;;;;;;;7.70;7.00;;;22.70;99.90;;;;;;5060358;28;20277;-56
2023/08/21 02:34:16;;;;;;;8.52;7.60;;;22.60;99.90;;;;;;5050789;28;20187;-56
2023/08/21 02:36:42;;;;;;;8.40;7.40;;;22.70;99.90;;;;;;5055518;28;20190;-56
2023/08/21 02:39:07;;;;;;;9.97;8.10;;;22.70;99.90;;;;;;5058816;28;20229;-56
2023/08/21 02:41:33;;;;;;;8.70;7.90;;;22.60;99.90;;;;;;5053469;28;20199;-55
2023/08/21 02:43:58;;;;;;;8.95;7.03;;;22.60;99.90;;;;;;5049815;28;20681;-60
2023/08/21 02:46:24;;;;;;;8.77;7.95;;;22.60;99.90;;;;;;5054359;28;20194;-60
2023/08/21 02:48:49;;;;;;;9.27;7.37;;;22.60;99.90;;;;;;5052760;28;20197;-59
2023/08/21 02:51:15;;;;;;;7.82;7.03;;;22.60;99.90;;;;;;5058643;28;20230;-57
2023/08/21 02:53:40;;;;;;;8.35;7.55;;;22.60;99.90;;;;;;5058114;28;20244;-57
2023/08/21 02:56:06;;;;;;;9.10;6.57;;;22.60;99.90;;;;;;5061335;28;20302;-53
2023/08/21 02:58:31;;;;;;;16.03;7.40;;;22.60;99.90;;;;;;5052696;28;20198;-58
2023/08/21 03:00:57;;;;;;;8.73;7.82;;;22.60;99.90;;;;;;5040403;28;20671;-55
2023/08/21 03:03:23;;;;;;;8.43;7.63;;;22.60;99.90;;;;;;5031901;28;20189;-55
2023/08/21 03:05:48;;;;;;;12.10;7.63;;;22.60;99.90;;;;;;5048613;28;20202;-55
2023/08/21 03:08:14;;;;;;;7.88;6.97;;;22.60;99.90;;;;;;5051952;28;20366;-55
2023/08/21 03:10:39;;;;;;;9.93;7.75;;;22.70;99.90;;;;;;5058642;28;20226;-55
2023/08/21 03:13:05;;;;;;;7.90;7.10;;;22.70;99.90;;;;;;5051965;28;20576;-56
2023/08/21 03:15:30;;;;;;;7.95;7.13;;;22.70;99.90;;;;;;5045816;28;20191;-55
2023/08/21 03:17:56;;;;;;;7.78;7.07;;;22.70;99.90;;;;;;5055896;28;20195;-55
2023/08/21 03:20:21;;;;;;;8.07;6.88;;;22.70;99.90;;;;;;5049709;28;20874;-56
2023/08/21 03:22:47;;;;;;;8.48;7.15;;;22.60;99.90;;;;;;5044599;28;20226;-57
2023/08/21 03:25:12;;;;;;;8.27;7.57;;;22.70;99.90;;;;;;5031681;28;20182;-55
2023/08/21 03:27:39;;;;;;;9.20;7.50;;;22.70;99.90;;;;;;5057030;28;20926;-55
2023/08/21 03:30:06;;;;;;;7.70;6.93;;;22.80;99.90;;;;;;5058548;28;20198;-56
2023/08/21 03:32:32;;;;;;;7.53;6.60;;;22.70;99.90;;;;;;5051009;28;20194;-55
2023/08/21 03:34:58;;;;;;;7.90;7.20;;;22.80;99.90;;;;;;5059385;28;20285;-56
2023/08/21 03:37:23;;;;;;;8.87;6.93;;;22.70;99.90;;;;;;5059862;28;20285;-55
2023/08/21 03:39:49;;;;;;;8.43;7.53;;;22.70;99.90;;;;;;5052360;28;20731;-55
2023/08/21 03:42:14;;;;;;;8.15;7.40;;;22.70;99.90;;;;;;5048781;28;20206;-56
2023/08/21 03:44:40;;;;;;;6.88;6.07;;;22.80;99.90;;;;;;5049882;28;20649;-56
2023/08/21 03:47:05;;;;;;;8.13;6.43;;;22.70;99.90;;;;;;5054045;28;20248;-56
2023/08/21 03:49:31;;;;;;;7.28;6.35;;;22.70;99.90;;;;;;5056074;28;20652;-56
2023/08/21 03:51:56;;;;;;;7.50;6.78;;;22.70;99.90;;;;;;5056684;28;20300;-57
2023/08/21 03:54:22;;;;;;;7.68;7.00;;;22.70;99.90;;;;;;5055648;28;20191;-56
2023/08/21 03:56:47;;;;;;;8.00;7.20;;;22.80;99.90;;;;;;5052070;28;20210;-55
2023/08/21 03:59:13;;;;;;;7.70;6.82;;;22.80;99.90;;;;;;5037540;28;20202;-55
2023/08/21 04:01:38;;;;;;;7.75;6.90;;;22.80;99.90;;;;;;5047189;28;20194;-55
2023/08/21 04:04:04;;;;;;;8.20;6.97;;;22.60;99.90;;;;;;5049095;28;20932;-55
2023/08/21 04:06:29;;;;;;;8.37;7.00;;;22.60;99.90;;;;;;5060351;28;20229;-55
2023/08/21 04:08:55;;;;;;;8.77;7.47;;;22.60;99.90;;;;;;5059908;28;20225;-55
2023/08/21 04:11:20;;;;;;;8.13;7.18;;;22.60;99.90;;;;;;5050415;28;20228;-55
2023/08/21 04:13:46;;;;;;;8.18;7.38;;;22.60;99.90;;;;;;5059124;28;20182;-55
2023/08/21 04:16:12;;;;;;;9.23;8.30;;;22.60;99.90;;;;;;5056173;28;20664;-55
2023/08/21 04:18:38;;;;;;;8.27;7.47;;;22.50;99.90;;;;;;5036105;28;20194;-55
2023/08/21 04:21:04;;;;;;;7.88;7.07;;;22.50;99.90;;;;;;5052865;28;20191;-55
2023/08/21 04:23:29;;;;;;;9.90;7.53;;;22.60;99.90;;;;;;5057609;28;20214;-54
2023/08/21 04:26:03;;;;;;;11.15;7.45;;;22.70;99.90;;;;;;5038587;28;20194;-55
2023/08/21 04:28:31;;;;;;;8.93;7.47;;;22.50;99.90;;;;;;5049551;28;20182;-55
2023/08/21 04:30:57;;;;;;;14.50;9.13;;;22.10;99.90;;;;;;5057585;28;20288;-55
2023/08/21 04:33:24;;;;;;;9.70;8.77;;;21.90;99.90;;;;;;5061520;28;20197;-55
2023/08/21 04:35:50;;;;;;;9.50;8.60;;;21.80;99.90;;;;;;5052697;28;20221;-54
2023/08/21 04:38:15;;;;;;;10.55;9.65;;;21.70;99.90;;;;;;5057666;28;20539;-55
2023/08/21 04:40:40;;;;;;;11.10;9.23;;;21.70;99.90;;;;;;5040399;28;20194;-57
2023/08/21 04:43:07;;;;;;;11.25;8.90;;;21.70;99.90;;;;;;5034814;28;20256;-57
2023/08/21 04:45:32;;;;;;;10.77;8.93;;;21.70;99.90;;;;;;5052414;28;20193;-57
2023/08/21 04:47:58;;;;;;;9.63;8.73;;;22.00;99.90;;;;;;5045506;28;20218;-58
2023/08/21 04:50:23;;;;;;;11.37;10.20;;;22.10;99.90;;;;;;5032984;28;21010;-55
2023/08/21 04:52:50;;;;;;;12.05;9.48;;;22.10;99.90;;;;;;5060999;28;20194;-55
2023/08/21 04:55:16;;;;;;;9.63;8.67;;;22.10;99.90;;;;;;5055594;28;20728;-55
2023/08/21 04:57:41;;;;;;;9.93;8.93;;;22.20;99.90;;;;;;5064865;28;20202;-55
2023/08/21 05:00:07;;;;;;;9.63;8.67;;;22.20;99.90;;;;;;5062614;28;20182;-55
2023/08/21 05:02:34;;;;;;;11.23;10.07;;;22.30;99.90;;;;;;5036737;28;20194;-54
2023/08/21 05:04:59;;;;;;;10.17;8.90;;;22.30;99.90;;;;;;5061865;28;20221;-54
2023/08/21 05:07:26;;;;;;;10.30;9.30;;;22.30;99.90;;;;;;5049961;28;20206;-55
2023/08/21 05:09:52;;;;;;;12.83;9.63;;;22.20;99.90;;;;;;5051513;28;20186;-55
2023/08/21 05:12:18;;;;;;;10.75;8.82;;;22.20;99.90;;;;;;5062156;28;20263;-55
2023/08/21 05:14:43;;;;;;;11.90;10.68;;;22.20;99.90;;;;;;5049832;28;20198;-55
2023/08/21 05:17:09;;;;;;;12.50;9.35;;;22.20;99.90;;;;;;5049604;28;20200;-55
2023/08/21 05:19:34;;;;;;;10.23;8.97;;;22.30;99.90;;;;;;5056759;28;20510;-55
2023/08/21 05:21:59;;;;;;;10.97;9.90;;;22.30;99.90;;;;;;5053215;28;20623;-57
2023/08/21 05:24:25;;;;;;;11.93;9.17;;;22.30;99.90;;;;;;5049768;28;20203;-55
2023/08/21 05:26:50;;;;;;;11.47;7.93;;;22.30;99.90;;;;;;5057034;28;20230;-55
2023/08/21 05:29:16;;;;;;;10.17;8.93;;;22.40;99.90;;;;;;5057812;28;20190;-55
2023/08/21 05:31:42;;;;;;;9.47;8.57;;;22.40;99.90;;;;;;5048317;28;20213;-55
2023/08/21 05:34:08;;;;;;;9.77;8.90;;;22.50;99.90;;;;;;5062516;28;20193;-55
2023/08/21 05:36:33;;;;;;;9.50;8.55;;;22.50;99.90;;;;;;5026744;28;20187;-56
2023/08/21 05:38:58;;;;;;;10.98;9.10;;;22.60;99.90;;;;;;5052540;28;20551;-55
2023/08/21 05:41:24;;;;;;;9.88;9.00;;;22.70;99.90;;;;;;5057114;28;20201;-55
2023/08/21 05:43:50;;;;;;;8.52;7.82;;;22.70;99.90;;;;;;5057409;28;20643;-56
2023/08/21 05:46:15;;;;;;;10.00;8.32;;;22.80;99.90;;;;;;5042619;28;20216;-56
2023/08/21 05:48:41;;;;;;;10.18;8.63;;;22.90;99.90;;;;;;5060299;28;20281;-56
2023/08/21 05:51:06;;;;;;;11.30;9.03;;;22.90;99.90;;;;;;5061723;28;20206;-56
2023/08/21 05:53:32;;;;;;;11.18;9.35;;;22.90;99.90;;;;;;5053934;28;20198;-56
2023/08/21 05:55:57;;;;;;;10.27;9.27;;;23.00;99.90;;;;;;5061485;28;20197;-56
2023/08/21 05:58:23;;;;;;;10.52;9.07;;;23.10;99.90;;;;;;5032755;28;20282;-56
2023/08/21 06:00:48;;;;;;;10.27;8.80;;;23.10;99.90;;;;;;5061654;28;20274;-56
2023/08/21 06:03:14;;;;;;;9.55;8.70;;;23.20;99.90;;;;;;5061376;28;20221;-55
2023/08/21 06:05:39;;;;;;;10.48;9.40;;;23.20;99.90;;;;;;5055284;28;20249;-56
2023/08/21 06:08:05;;;;;;;10.73;9.63;;;23.20;99.90;;;;;;5051262;28;20202;-60
2023/08/21 06:10:34;;;;;;;10.52;9.40;;;23.30;99.90;;;;;;5048580;28;20309;-57
2023/08/21 06:12:59;;;;;;;12.88;10.23;;;23.20;99.90;;;;;;5057163;28;20270;-57
2023/08/21 06:15:24;;;;;;;12.07;10.90;;;23.20;99.90;;;;;;5041770;28;20952;-54
2023/08/21 06:17:50;;;;;;;10.85;9.82;;;23.20;99.90;;;;;;5064457;28;20498;-57
2023/08/21 06:20:15;;;;;;;12.77;9.23;;;23.20;99.90;;;;;;5035056;28;20204;-56
2023/08/21 06:22:41;;;;;;;10.82;9.88;;;23.20;99.90;;;;;;5052838;28;20281;-56
2023/08/21 06:25:08;;;;;;;12.35;9.90;;;23.00;99.90;;;;;;5055688;28;20186;-55
2023/08/21 06:27:33;;;;;;;11.02;9.65;;;23.00;99.90;;;;;;5057092;28;20691;-56
2023/08/21 06:29:59;;;;;;;10.50;9.48;;;23.10;99.90;;;;;;5051941;28;20186;-55
2023/08/21 06:32:24;;;;;;;12.35;10.52;;;23.10;99.90;;;;;;5058283;28;20202;-56
2023/08/21 06:34:50;;;;;;;10.70;9.63;;;23.20;99.90;;;;;;5053697;28;20178;-55
2023/08/21 06:37:15;;;;;;;11.45;10.35;;;23.30;99.90;;;;;;5062802;28;20706;-56
2023/08/21 06:39:41;;;;;;;13.23;9.93;;;23.20;99.90;;;;;;5054770;28;20236;-57
2023/08/21 06:42:06;;;;;;;11.38;10.23;;;23.20;99.90;;;;;;5044805;28;20659;-57
2023/08/21 06:44:32;;;;;;;12.95;10.57;;;23.20;99.90;;;;;;5053030;28;20170;-57
2023/08/21 06:46:58;;;;;;;14.03;11.60;;;23.10;99.90;;;;;;5046888;28;20198;-57
2023/08/21 06:49:23;;;;;;;15.23;10.40;;;23.20;99.90;;;;;;5059339;28;20182;-56
2023/08/21 06:51:49;;;;;;;12.98;9.50;;;23.20;99.90;;;;;;5062688;28;20213;-57
2023/08/21 06:54:15;;;;;;;8.57;7.80;;;23.30;99.90;;;;;;5056860;28;20274;-57
2023/08/21 06:56:40;;;;;;;11.10;8.85;;;23.50;99.90;;;;;;5059933;28;20186;-58
2023/08/21 06:59:06;;;;;;;9.30;8.25;;;23.70;99.90;;;;;;5056004;28;20773;-59
2023/08/21 07:01:31;;;;;;;12.95;8.20;;;23.90;99.90;;;;;;5039433;28;20606;-57
2023/08/21 07:03:57;;;;;;;7.93;6.95;;;24.00;99.90;;;;;;5045000;28;20253;-57
2023/08/21 07:06:23;;;;;;;11.75;7.50;;;24.00;99.90;;;;;;5038360;28;20760;-60
2023/08/21 07:08:48;;;;;;;7.80;7.00;;;24.00;99.90;;;;;;5058122;28;20961;-62
2023/08/21 07:11:14;;;;;;;9.30;6.80;;;24.10;99.90;;;;;;5058308;28;20202;-62
2023/08/21 07:13:39;;;;;;;7.80;6.80;;;24.00;99.90;;;;;;5059244;28;20210;-62
2023/08/21 07:16:06;;;;;;;9.13;6.88;;;23.90;99.90;;;;;;5055668;28;20229;-63
2023/08/21 07:18:33;;;;;;;10.73;7.25;;;24.00;99.90;;;;;;5053634;28;20243;-62
2023/08/21 07:20:59;;;;;;;7.38;6.70;;;23.90;99.90;;;;;;5051316;28;20205;-62
2023/08/21 07:23:24;;;;;;;8.30;6.82;;;23.90;99.90;;;;;;5039146;28;20210;-62
2023/08/21 07:25:49;;;;;;;9.23;7.40;;;23.80;99.90;;;;;;5059853;28;20685;-59
2023/08/21 07:28:15;;;;;;;11.15;7.10;;;23.60;99.90;;;;;;5039213;28;20272;-65
2023/08/21 07:30:40;;;;;;;8.55;6.45;;;23.40;99.90;;;;;;5043733;28;20684;-58
2023/08/21 07:33:06;;;;;;;9.57;7.10;;;23.40;99.90;;;;;;5052144;28;20210;-64
2023/08/21 07:35:32;;;;;;;8.50;6.93;;;23.40;99.90;;;;;;5057176;28;20213;-62
2023/08/21 07:37:57;;;;;;;7.85;5.57;;;23.50;99.90;;;;;;5040113;28;20300;-60
2023/08/21 07:40:23;;;;;;;9.75;5.82;;;23.70;99.90;;;;;;5054003;28;20682;-58
2023/08/21 07:42:49;;;;;;;8.23;5.50;;;23.90;99.90;;;;;;5051016;28;20220;-58
2023/08/21 07:45:14;;;;;;;6.00;4.60;;;24.00;99.90;;;;;;5051411;28;20174;-63
2023/08/21 07:47:40;;;;;;;6.88;5.35;;;24.10;99.90;;;;;;5055005;28;20668;-62
2023/08/21 07:50:06;;;;;;;6.40;5.28;;;24.30;99.90;;;;;;5057620;28;20726;-62
2023/08/21 07:52:32;;;;;;;4.75;4.35;;;24.40;99.90;;;;;;5035435;28;20552;-62
2023/08/21 07:55:00;;;;;;;4.57;4.13;;;24.30;99.90;;;;;;5058595;28;20291;-62
2023/08/21 07:57:26;;;;;;;4.65;4.25;;;24.40;99.90;;;;;;5038367;28;20188;-60
2023/08/21 07:59:51;;;;;;;5.65;4.28;;;24.50;99.90;;;;;;5057124;28;20916;-57
2023/08/21 08:02:17;;;;;;;5.53;3.65;;;24.50;99.90;;;;;;5047134;28;20196;-67
2023/08/21 08:04:44;;;;;;;6.82;4.05;;;24.30;99.90;;;;;;5055540;28;20231;-69
2023/08/21 08:07:09;;;;;;;5.45;3.88;;;24.10;99.90;;;;;;5053348;28;20277;-62
2023/08/21 08:09:35;;;;;;;6.93;4.05;;;24.00;99.90;;;;;;5029091;28;20688;-62
2023/08/21 08:12:01;;;;;;;5.43;4.07;;;24.00;99.90;;;;;;5059997;28;20202;-62
2023/08/21 08:14:26;;;;;;;4.43;4.05;;;24.00;99.90;;;;;;5061018;28;20564;-67
2023/08/21 08:16:52;;;;;;;12.57;4.18;;;24.10;99.90;;;;;;5054772;28;20195;-59
2023/08/21 08:19:17;;;;;;;5.80;4.18;;;24.10;99.90;;;;;;5058410;28;20899;-59
2023/08/21 08:21:43;;;;;;;4.93;3.75;;;24.00;99.90;;;;;;5061313;28;20205;-61
2023/08/21 08:24:09;;;;;;;6.57;3.80;;;23.90;99.90;;;;;;5057555;28;20225;-61
2023/08/21 08:26:34;;;;;;;6.90;4.47;;;23.90;99.90;;;;;;5059957;28;20265;-65
2023/08/21 08:29:00;;;;;;;6.97;3.50;;;23.70;99.90;;;;;;5056763;28;20621;-65
2023/08/21 08:31:27;;;;;;;5.22;3.40;;;23.60;99.90;;;;;;5027860;28;20208;-67
2023/08/21 08:33:53;;;;;;;34.88;5.53;;;23.10;99.90;;;;;;5053884;28;20230;-67
2023/08/21 08:36:20;;;;;;;10.82;3.17;;;23.10;99.90;;;;;;5056138;28;20198;-69
2023/08/21 08:38:45;;;;;;;4.00;2.47;;;23.50;99.90;;;;;;5057298;28;20194;-60
2023/08/21 08:41:24;;;;;;;3.75;1.80;;;23.50;99.90;;;;;;5061079;28;20829;-60
2023/08/21 08:43:51;;;;;;;2.28;1.65;;;23.60;99.90;;;;;;5057149;28;20226;-62
2023/08/21 08:46:17;;;;;;;2.85;1.42;;;23.30;99.90;;;;;;5043129;28;20230;-61
2023/08/21 08:48:43;;;;;;;1.30;1.20;;;23.60;99.90;;;;;;5040380;28;20653;-62
2023/08/21 08:51:09;;;;;;;2.13;1.52;;;23.40;99.90;;;;;;5040081;28;20289;-61
2023/08/21 08:53:35;;;;;;;2.92;1.40;;;23.70;99.90;;;;;;5039598;28;20218;-61
2023/08/21 08:56:00;;;;;;;1.42;1.08;;;23.70;99.90;;;;;;5046540;28;20196;-59
2023/08/21 08:58:26;;;;;;;1.50;1.40;;;23.90;99.90;;;;;;5063498;28;20189;-67
2023/08/21 09:00:52;;;;;;;1.42;0.95;;;24.00;99.90;;;;;;5039986;28;20200;-63
2023/08/21 09:03:17;;;;;;;2.47;1.63;;;24.10;99.90;;;;;;5056099;28;20273;-63
2023/08/21 09:05:43;;;;;;;1.50;1.40;;;24.10;99.90;;;;;;5052733;28;20210;-63
2023/08/21 09:08:08;;;;;;;1.30;1.20;;;24.20;99.90;;;;;;5059194;28;20188;-63
2023/08/21 09:10:36;;;;;;;2.58;1.30;;;23.90;99.90;;;;;;5062204;28;20213;-63
2023/08/21 09:13:08;;;;;;;3.30;1.58;;;24.00;99.90;;;;;;5052930;28;20329;-63
2023/08/21 09:15:35;;;;;;;5.05;1.52;;;24.10;99.90;;;;;;5062243;28;20196;-69
2023/08/21 09:18:00;;;;;;;5.03;1.40;;;24.20;99.90;;;;;;5059787;28;20229;-60
2023/08/21 09:20:26;;;;;;;2.85;1.13;;;24.10;99.90;;;;;;5062195;28;20647;-59
2023/08/21 09:22:55;;;;;;;4.05;1.40;;;24.30;99.90;;;;;;5062374;28;20207;-58
2023/08/21 09:25:24;;;;;;;1.60;1.23;;;24.40;99.90;;;;;;5063857;28;20172;-58
2023/08/21 09:27:53;;;;;;;1.60;1.25;;;24.50;99.70;;;;;;5062300;28;20252;-59
2023/08/21 09:30:18;;;;;;;3.13;1.70;;;24.50;99.60;;;;;;5063274;28;20187;-59
2023/08/21 09:33:00;;;;;;;2.17;1.13;;;24.70;99.60;;;;;;5041046;28;20236;-68
2023/08/21 09:35:26;;;;;;;1.75;1.25;;;24.80;99.90;;;;;;5062354;28;20196;-70
2023/08/21 09:37:53;;;;;;;3.28;1.38;;;24.80;98.50;;;;;;5044405;28;20193;-60
2023/08/21 09:40:19;;;;;;;2.17;1.65;;;24.70;99.90;;;;;;5058699;28;20195;-58
2023/08/21 09:42:45;;;;;;;5.45;1.40;;;24.80;99.90;;;;;;5060559;28;20648;-64
2023/08/21 09:45:10;;;;;;;4.38;1.55;;;25.20;99.90;;;;;;5041270;28;20191;-67
2023/08/21 09:47:39;;;;;;;6.97;3.65;;;25.30;99.70;;;;;;5045294;28;20285;-66
2023/08/21 09:50:04;;;;;;;3.05;1.63;;;25.40;99.60;;;;;;5044926;28;20197;-60
2023/08/21 09:52:30;;;;;;;1.63;1.20;;;25.50;99.20;;;;;;5042135;28;20249;-68
2023/08/21 09:54:57;;;;;;;3.70;2.30;;;25.60;98.80;;;;;;5061009;28;20196;-64
2023/08/21 09:57:23;;;;;;;3.20;1.70;;;25.60;99.80;;;;;;5046936;28;20197;-63
2023/08/21 09:59:54;;;;;;;4.00;1.77;;;25.60;99.10;;;;;;5062799;28;20182;-62
2023/08/21 10:02:20;;;;;;;2.38;1.65;;;25.70;98.80;;;;;;5062765;28;20230;-63
2023/08/21 10:04:48;;;;;;;2.92;1.40;;;25.70;98.70;;;;;;5043984;28;20216;-63
2023/08/21 10:07:16;;;;;;;2.33;1.60;;;25.80;98.40;;;;;;5057017;28;20214;-63
2023/08/21 10:09:42;;;;;;;3.45;1.70;;;25.80;98.70;;;;;;5048082;28;20228;-63
2023/08/21 10:12:14;;;;;;;2.85;1.60;;;25.60;97.10;;;;;;5059644;28;20398;-63
2023/08/21 10:14:40;;;;;;;3.45;2.13;;;25.60;98.30;;;;;;5035431;28;20187;-70
2023/08/21 10:17:07;;;;;;;3.10;1.60;;;25.60;98.30;;;;;;5059288;28;20206;-65
2023/08/21 10:19:34;;;;;;;2.97;2.45;;;25.80;99.00;;;;;;5059704;28;20283;-63
2023/08/21 10:22:00;;;;;;;3.45;1.58;;;25.80;97.30;;;;;;5056136;28;20923;-64
2023/08/21 10:24:37;;;;;;;2.90;1.77;;;25.90;96.80;;;;;;5056164;28;20228;-64
2023/08/21 10:27:03;;;;;;;5.00;1.67;;;26.20;97.70;;;;;;5062978;28;20180;-67
2023/08/21 10:29:31;;;;;;;3.92;1.45;;;26.30;96.80;;;;;;5043729;28;20269;-62
2023/08/21 10:32:04;;;;;;;2.00;1.10;;;26.30;95.60;;;;;;5060864;28;20670;-63
2023/08/21 10:34:37;;;;;;;2.10;1.30;;;26.50;95.30;;;;;;5059600;28;20220;-60
2023/08/21 10:37:06;;;;;;;1.98;1.13;;;26.30;95.70;;;;;;5062399;28;20196;-59
2023/08/21 10:39:33;;;;;;;1.17;1.17;;;26.20;94.40;;;;;;5055499;28;20190;-61
2023/08/21 10:42:07;;;;;;;2.95;1.58;;;26.10;94.80;;;;;;5061741;28;20193;-61
2023/08/21 10:44:52;;;;;;;2.45;1.42;;;25.80;96.10;;;;;;5055661;28;20175;-59
2023/08/21 10:47:31;;;;;;;2.70;1.60;;;26.00;94.10;;;;;;5061906;28;20184;-60
2023/08/21 10:50:03;;;;;;;1.77;1.35;;;26.30;94.50;;;;;;5062016;28;20344;-60
2023/08/21 10:52:43;;;;;;;5.32;1.55;;;26.40;94.10;;;;;;5059513;28;20272;-60
2023/08/21 10:55:09;;;;;;;1.83;1.42;;;26.50;94.50;;;;;;5062276;28;20170;-60
2023/08/21 10:57:35;;;;;;;2.10;1.60;;;26.60;94.40;;;;;;5039773;28;20244;-60
2023/08/21 11:00:12;;;;;;;1.67;1.30;;;26.80;94.30;;;;;;5059106;28;20186;-61
2023/08/21 11:02:40;;;;;;;1.40;1.30;;;26.60;94.00;;;;;;5059227;28;20671;-63
2023/08/21 11:05:07;;;;;;;1.60;1.27;;;26.50;95.20;;;;;;5061448;28;20229;-61
2023/08/21 11:07:40;;;;;;;2.40;1.63;;;26.60;95.00;;;;;;5043270;28;20873;-62
2023/08/21 11:10:08;;;;;;;1.63;1.42;;;26.50;93.80;;;;;;5055643;28;20205;-61
2023/08/21 11:12:34;;;;;;;4.45;1.90;;;26.40;94.50;;;;;;5058245;28;20280;-61
2023/08/21 11:14:59;;;;;;;1.45;1.23;;;26.40;93.20;;;;;;5061208;28;20179;-61
2023/08/21 11:17:25;;;;;;;1.90;1.50;;;26.30;94.30;;;;;;5041111;28;20182;-60
2023/08/21 11:19:51;;;;;;;3.13;1.73;;;26.40;93.40;;;;;;5059230;28;20671;-59
2023/08/21 11:22:28;;;;;;;1.52;1.30;;;26.50;94.00;;;;;;5060870;28;20186;-59
2023/08/21 11:24:53;;;;;;;4.13;1.33;;;26.60;92.80;;;;;;5061095;28;20243;-63
2023/08/21 11:27:19;;;;;;;1.55;1.20;;;26.60;93.10;;;;;;5117337;22;20252;-64
2023/08/21 11:29:46;;;;;;;1.42;1.10;;;26.60;91.40;;;;;;5082419;28;20204;-63
2023/08/21 11:32:14;;;;;;;7.05;1.48;;;26.70;92.70;;;;;;5086334;28;20204;-61
2023/08/21 11:34:51;;;;;;;1.23;1.05;;;26.70;92.70;;;;;;5088447;28;20200;-61
2023/08/21 11:37:18;;;;;;;1.67;1.30;;;26.60;93.00;;;;;;5085808;28;20271;-67
2023/08/21 11:39:49;;;;;;;1.40;1.05;;;26.70;92.50;;;;;;5073068;28;20922;-66
2023/08/21 11:42:15;;;;;;;4.40;1.20;;;26.60;93.50;;;;;;5083927;28;20181;-58
2023/08/21 11:44:54;;;;;;;4.20;1.10;;;26.50;91.70;;;;;;5083259;28;20568;-58
2023/08/21 11:47:21;;;;;;;1.25;1.13;;;26.70;92.40;;;;;;5066588;28;20480;-62
2023/08/21 11:49:49;;;;;;;2.67;1.33;;;26.60;91.40;;;;;;5087027;28;20555;-60
2023/08/21 11:52:19;;;;;;;2.55;2.35;;;26.80;90.90;;;;;;5089954;28;20263;-62
2023/08/21 11:54:48;;;;;;;3.00;1.10;;;27.20;90.20;;;;;;5087030;28;20302;-61
2023/08/21 11:57:14;;;;;;;2.92;1.17;;;26.80;90.20;;;;;;5086900;28;20198;-58
2023/08/21 11:59:40;;;;;;;3.80;1.48;;;26.80;90.60;;;;;;5087830;28;20212;-64
2023/08/21 12:02:18;;;;;;;5.93;1.67;;;26.70;91.20;;;;;;5089363;28;20173;-61
2023/08/21 12:04:44;;;;;;;3.22;1.55;;;26.40;90.90;;;;;;5092927;28;20207;-59
2023/08/21 12:07:10;;;;;;;4.53;1.67;;;26.40;90.30;;;;;;5085912;28;20204;-61
2023/08/21 12:09:35;;;;;;;5.80;1.83;;;26.40;92.50;;;;;;5092468;28;20204;-65
2023/08/21 12:12:01;;;;;;;2.33;1.38;;;26.30;92.80;;;;;;5079945;28;20678;-60
2023/08/21 12:14:28;;;;;;;3.22;1.65;;;26.60;92.10;;;;;;5092039;28;20193;-65
2023/08/21 12:16:54;;;;;;;3.55;1.70;;;26.40;91.70;;;;;;5084892;28;20816;-62
2023/08/21 12:19:23;;;;;;;2.65;1.38;;;26.60;93.40;;;;;;5046930;28;20186;-62
2023/08/21 12:21:49;;;;;;;2.35;1.40;;;26.60;92.90;;;;;;5073283;28;20208;-73
2023/08/21 12:24:15;;;;;;;2.65;1.60;;;26.60;92.30;;;;;;5067899;28;20567;-62
2023/08/21 12:26:40;;;;;;;2.30;1.60;;;26.70;91.80;;;;;;5087623;28;20193;-62
2023/08/21 12:29:06;;;;;;;2.42;1.30;;;26.30;91.20;;;;;;5066914;28;20768;-62
2023/08/21 12:31:31;;;;;;;3.85;1.45;;;26.20;92.80;;;;;;5085433;28;20209;-61
2023/08/21 12:33:57;;;;;;;3.15;1.40;;;26.30;91.40;;;;;;5085027;28;20199;-62
2023/08/21 12:36:23;;;;;;;1.50;1.15;;;26.40;92.10;;;;;;5082331;28;20189;-62
2023/08/21 12:38:48;;;;;;;3.20;1.75;;;26.40;92.60;;;;;;5072205;28;20224;-63